sensor_id;sensor_type;location;lat;lon;timestamp;temperature;humidity
12819;DHT22;6474;53.474;9.894;2022-10-30T00:01:47;14.10;91.10
12819;DHT22;6474;53.474;9.894;2022-10-30T00:04:15;14.10;91.10
12819;DHT22;6474;53.474;9.894;2022-10-30T00:06:43;14.10;91.10
12819;DHT22;6474;53.474;9.894;2022-10-30T00:09:11;14.10;91.50
12819;DHT22;6474;53.474;9.894;2022-10-30T00:11:39;14.10;91.20
12819;DHT22;6474;53.474;9.894;2022-10-30T00:14:07;14.10;91.20
12819;DHT22;6474;53.474;9.894;2022-10-30T00:16:35;14.10;91.20
12819;DHT22;6474;53.474;9.894;2022-10-30T00:19:04;14.00;91.10
12819;DHT22;6474;53.474;9.894;2022-10-30T00:21:32;14.00;91.10
12819;DHT22;6474;53.474;9.894;2022-10-30T00:24:00;14.00;91.10
12819;DHT22;6474;53.474;9.894;2022-10-30T00:26:27;14.00;91.10
12819;DHT22;6474;53.474;9.894;2022-10-30T00:28:57;14.00;91.10
12819;DHT22;6474;53.474;9.894;2022-10-30T00:31:25;14.00;91.10
12819;DHT22;6474;53.474;9.894;2022-10-30T00:33:53;14.00;91.10
12819;DHT22;6474;53.474;9.894;2022-10-30T00:36:23;14.00;91.10
12819;DHT22;6474;53.474;9.894;2022-10-30T00:38:50;13.90;91.10
12819;DHT22;6474;53.474;9.894;2022-10-30T00:41:20;13.90;91.10
12819;DHT22;6474;53.474;9.894;2022-10-30T00:43:48;13.90;91.10
12819;DHT22;6474;53.474;9.894;2022-10-30T00:46:19;13.80;91.10
12819;DHT22;6474;53.474;9.894;2022-10-30T00:48:53;13.80;91.10
12819;DHT22;6474;53.474;9.894;2022-10-30T00:51:24;13.80;91.10
12819;DHT22;6474;53.474;9.894;2022-10-30T00:53:52;13.70;91.10
12819;DHT22;6474;53.474;9.894;2022-10-30T00:56:20;13.70;91.10
12819;DHT22;6474;53.474;9.894;2022-10-30T00:58:54;13.70;91.10
12819;DHT22;6474;53.474;9.894;2022-10-30T01:01:25;13.60;91.10
12819;DHT22;6474;53.474;9.894;2022-10-30T01:03:55;13.60;91.10
12819;DHT22;6474;53.474;9.894;2022-10-30T01:06:27;13.60;91.10
12819;DHT22;6474;53.474;9.894;2022-10-30T01:08:55;13.50;91.10
12819;DHT22;6474;53.474;9.894;2022-10-30T01:11:25;13.50;91.10
12819;DHT22;6474;53.474;9.894;2022-10-30T01:13:57;13.50;91.10
12819;DHT22;6474;53.474;9.894;2022-10-30T01:16:49;13.50;91.10
12819;DHT22;6474;53.474;9.894;2022-10-30T01:19:25;13.50;91.20
12819;DHT22;6474;53.474;9.894;2022-10-30T01:22:11;13.40;91.10
12819;DHT22;6474;53.474;9.894;2022-10-30T01:24:51;13.40;91.20
12819;DHT22;6474;53.474;9.894;2022-10-30T01:27:32;13.40;91.20
12819;DHT22;6474;53.474;9.894;2022-10-30T01:30:10;13.40;91.30
12819;DHT22;6474;53.474;9.894;2022-10-30T01:32:48;13.40;91.30
12819;DHT22;6474;53.474;9.894;2022-10-30T01:35:25;13.40;91.30
12819;DHT22;6474;53.474;9.894;2022-10-30T01:38:00;13.40;91.30
12819;DHT22;6474;53.474;9.894;2022-10-30T01:40:29;13.50;91.30
12819;DHT22;6474;53.474;9.894;2022-10-30T01:42:58;13.50;91.30
12819;DHT22;6474;53.474;9.894;2022-10-30T01:45:37;13.50;91.30
12819;DHT22;6474;53.474;9.894;2022-10-30T01:48:26;13.50;91.30
12819;DHT22;6474;53.474;9.894;2022-10-30T01:51:02;13.60;91.20
12819;DHT22;6474;53.474;9.894;2022-10-30T01:53:44;13.60;91.20
12819;DHT22;6474;53.474;9.894;2022-10-30T01:56:20;13.60;91.10
12819;DHT22;6474;53.474;9.894;2022-10-30T01:58:59;13.60;91.10
12819;DHT22;6474;53.474;9.894;2022-10-30T02:01:29;13.60;91.10
12819;DHT22;6474;53.474;9.894;2022-10-30T02:03:59;13.70;91.20
12819;DHT22;6474;53.474;9.894;2022-10-30T02:06:32;13.60;91.10
12819;DHT22;6474;53.474;9.894;2022-10-30T02:09:01;13.60;91.00
12819;DHT22;6474;53.474;9.894;2022-10-30T02:11:31;13.60;91.10
12819;DHT22;6474;53.474;9.894;2022-10-30T02:14:01;13.60;91.00
12819;DHT22;6474;53.474;9.894;2022-10-30T02:16:32;13.50;91.00
12819;DHT22;6474;53.474;9.894;2022-10-30T02:19:01;13.50;91.00
12819;DHT22;6474;53.474;9.894;2022-10-30T02:21:30;13.50;91.00
12819;DHT22;6474;53.474;9.894;2022-10-30T02:23:58;13.40;91.00
12819;DHT22;6474;53.474;9.894;2022-10-30T02:26:26;13.40;91.00
12819;DHT22;6474;53.474;9.894;2022-10-30T02:28:54;13.40;91.10
12819;DHT22;6474;53.474;9.894;2022-10-30T02:31:22;13.30;91.00
12819;DHT22;6474;53.474;9.894;2022-10-30T02:33:49;13.30;91.00
12819;DHT22;6474;53.474;9.894;2022-10-30T02:36:17;13.20;91.00
12819;DHT22;6474;53.474;9.894;2022-10-30T02:38:46;13.20;91.00
12819;DHT22;6474;53.474;9.894;2022-10-30T02:41:14;13.20;91.10
12819;DHT22;6474;53.474;9.894;2022-10-30T02:43:42;13.10;91.10
12819;DHT22;6474;53.474;9.894;2022-10-30T02:46:09;13.10;91.10
12819;DHT22;6474;53.474;9.894;2022-10-30T02:48:37;13.10;91.10
12819;DHT22;6474;53.474;9.894;2022-10-30T02:51:05;13.10;91.10
12819;DHT22;6474;53.474;9.894;2022-10-30T02:53:33;13.00;91.10
12819;DHT22;6474;53.474;9.894;2022-10-30T02:56:07;13.00;91.10
12819;DHT22;6474;53.474;9.894;2022-10-30T02:58:35;12.90;91.10
12819;DHT22;6474;53.474;9.894;2022-10-30T03:01:05;12.90;91.10
12819;DHT22;6474;53.474;9.894;2022-10-30T03:03:33;12.90;91.20
12819;DHT22;6474;53.474;9.894;2022-10-30T03:06:02;12.80;91.10
12819;DHT22;6474;53.474;9.894;2022-10-30T03:08:30;12.80;91.20
12819;DHT22;6474;53.474;9.894;2022-10-30T03:10:59;12.80;91.20
12819;DHT22;6474;53.474;9.894;2022-10-30T03:13:30;12.80;91.20
12819;DHT22;6474;53.474;9.894;2022-10-30T03:15:59;12.80;91.50
12819;DHT22;6474;53.474;9.894;2022-10-30T03:18:27;12.80;91.20
12819;DHT22;6474;53.474;9.894;2022-10-30T03:20:56;12.80;91.20
12819;DHT22;6474;53.474;9.894;2022-10-30T03:23:24;12.70;91.20
12819;DHT22;6474;53.474;9.894;2022-10-30T03:25:54;12.70;91.20
12819;DHT22;6474;53.474;9.894;2022-10-30T03:28:24;12.70;91.20
12819;DHT22;6474;53.474;9.894;2022-10-30T03:30:57;12.80;91.30
12819;DHT22;6474;53.474;9.894;2022-10-30T03:33:25;12.70;91.20
12819;DHT22;6474;53.474;9.894;2022-10-30T03:35:53;12.80;91.20
12819;DHT22;6474;53.474;9.894;2022-10-30T03:38:21;12.80;91.30
12819;DHT22;6474;53.474;9.894;2022-10-30T03:40:49;12.80;91.20
12819;DHT22;6474;53.474;9.894;2022-10-30T03:43:17;12.80;91.20
12819;DHT22;6474;53.474;9.894;2022-10-30T03:45:46;12.70;91.20
12819;DHT22;6474;53.474;9.894;2022-10-30T03:48:17;12.70;91.20
12819;DHT22;6474;53.474;9.894;2022-10-30T03:50:46;12.70;91.10
12819;DHT22;6474;53.474;9.894;2022-10-30T03:53:14;12.70;91.10
12819;DHT22;6474;53.474;9.894;2022-10-30T03:55:41;12.70;91.10
12819;DHT22;6474;53.474;9.894;2022-10-30T03:58:09;12.70;91.20
12819;DHT22;6474;53.474;9.894;2022-10-30T04:00:37;12.70;91.20
12819;DHT22;6474;53.474;9.894;2022-10-30T04:03:05;12.70;91.20
12819;DHT22;6474;53.474;9.894;2022-10-30T04:05:35;12.70;91.20
12819;DHT22;6474;53.474;9.894;2022-10-30T04:08:05;12.70;91.20
12819;DHT22;6474;53.474;9.894;2022-10-30T04:10:33;12.70;91.30
12819;DHT22;6474;53.474;9.894;2022-10-30T04:13:03;12.70;91.30
12819;DHT22;6474;53.474;9.894;2022-10-30T04:15:31;12.80;91.30
12819;DHT22;6474;53.474;9.894;2022-10-30T04:17:59;12.80;91.30
12819;DHT22;6474;53.474;9.894;2022-10-30T04:20:28;12.80;91.30
12819;DHT22;6474;53.474;9.894;2022-10-30T04:22:58;12.80;91.20
12819;DHT22;6474;53.474;9.894;2022-10-30T04:25:26;12.80;91.20
12819;DHT22;6474;53.474;9.894;2022-10-30T04:27:55;12.80;91.20
12819;DHT22;6474;53.474;9.894;2022-10-30T04:30:24;12.80;91.20
12819;DHT22;6474;53.474;9.894;2022-10-30T04:32:54;12.80;91.20
12819;DHT22;6474;53.474;9.894;2022-10-30T04:35:24;12.80;91.20
12819;DHT22;6474;53.474;9.894;2022-10-30T04:37:52;12.80;91.10
12819;DHT22;6474;53.474;9.894;2022-10-30T04:40:23;12.80;91.10
12819;DHT22;6474;53.474;9.894;2022-10-30T04:42:51;12.80;91.20
12819;DHT22;6474;53.474;9.894;2022-10-30T04:45:19;12.80;91.20
12819;DHT22;6474;53.474;9.894;2022-10-30T04:47:47;12.80;91.20
12819;DHT22;6474;53.474;9.894;2022-10-30T04:50:16;12.80;91.20
12819;DHT22;6474;53.474;9.894;2022-10-30T04:52:44;12.80;91.20
12819;DHT22;6474;53.474;9.894;2022-10-30T04:55:11;12.80;91.20
12819;DHT22;6474;53.474;9.894;2022-10-30T04:57:41;12.80;91.20
12819;DHT22;6474;53.474;9.894;2022-10-30T05:00:10;12.80;91.20
12819;DHT22;6474;53.474;9.894;2022-10-30T05:02:38;12.80;91.20
12819;DHT22;6474;53.474;9.894;2022-10-30T05:05:06;12.80;91.30
12819;DHT22;6474;53.474;9.894;2022-10-30T05:07:34;12.80;91.30
12819;DHT22;6474;53.474;9.894;2022-10-30T05:10:04;12.80;91.20
12819;DHT22;6474;53.474;9.894;2022-10-30T05:12:31;12.80;91.20
12819;DHT22;6474;53.474;9.894;2022-10-30T05:15:00;12.80;91.20
12819;DHT22;6474;53.474;9.894;2022-10-30T05:17:28;12.80;91.20
12819;DHT22;6474;53.474;9.894;2022-10-30T05:20:01;12.80;91.20
12819;DHT22;6474;53.474;9.894;2022-10-30T05:22:29;12.80;91.10
12819;DHT22;6474;53.474;9.894;2022-10-30T05:24:56;12.80;91.10
12819;DHT22;6474;53.474;9.894;2022-10-30T05:27:24;12.80;91.10
12819;DHT22;6474;53.474;9.894;2022-10-30T05:29:52;12.80;91.10
12819;DHT22;6474;53.474;9.894;2022-10-30T05:32:21;12.70;91.10
12819;DHT22;6474;53.474;9.894;2022-10-30T05:34:49;12.70;91.10
12819;DHT22;6474;53.474;9.894;2022-10-30T05:37:17;12.70;91.10
12819;DHT22;6474;53.474;9.894;2022-10-30T05:39:44;12.70;91.10
12819;DHT22;6474;53.474;9.894;2022-10-30T05:42:12;12.60;91.10
12819;DHT22;6474;53.474;9.894;2022-10-30T05:44:40;12.60;91.10
12819;DHT22;6474;53.474;9.894;2022-10-30T05:47:27;12.60;91.10
12819;DHT22;6474;53.474;9.894;2022-10-30T05:49:55;12.50;91.10
12819;DHT22;6474;53.474;9.894;2022-10-30T05:52:23;12.50;91.10
12819;DHT22;6474;53.474;9.894;2022-10-30T05:54:50;12.50;91.10
12819;DHT22;6474;53.474;9.894;2022-10-30T05:57:18;12.50;91.10
12819;DHT22;6474;53.474;9.894;2022-10-30T05:59:46;12.50;91.10
12819;DHT22;6474;53.474;9.894;2022-10-30T06:02:15;12.40;91.10
12819;DHT22;6474;53.474;9.894;2022-10-30T06:04:44;12.40;91.10
12819;DHT22;6474;53.474;9.894;2022-10-30T06:07:12;12.30;91.10
12819;DHT22;6474;53.474;9.894;2022-10-30T06:09:40;12.30;91.10
12819;DHT22;6474;53.474;9.894;2022-10-30T06:12:08;12.30;91.10
12819;DHT22;6474;53.474;9.894;2022-10-30T06:14:36;12.20;91.10
12819;DHT22;6474;53.474;9.894;2022-10-30T06:17:04;12.30;91.10
12819;DHT22;6474;53.474;9.894;2022-10-30T06:19:32;12.20;91.10
12819;DHT22;6474;53.474;9.894;2022-10-30T06:22:01;12.20;91.10
12819;DHT22;6474;53.474;9.894;2022-10-30T06:24:29;12.20;91.10
12819;DHT22;6474;53.474;9.894;2022-10-30T06:26:57;12.20;91.20
12819;DHT22;6474;53.474;9.894;2022-10-30T06:29:25;12.10;91.10
12819;DHT22;6474;53.474;9.894;2022-10-30T06:31:52;12.20;91.20
12819;DHT22;6474;53.474;9.894;2022-10-30T06:34:20;12.20;91.20
12819;DHT22;6474;53.474;9.894;2022-10-30T06:36:48;12.20;91.20
12819;DHT22;6474;53.474;9.894;2022-10-30T06:39:17;12.20;91.20
12819;DHT22;6474;53.474;9.894;2022-10-30T06:41:45;12.20;91.20
12819;DHT22;6474;53.474;9.894;2022-10-30T06:44:12;12.20;91.20
12819;DHT22;6474;53.474;9.894;2022-10-30T06:46:40;12.20;91.20
12819;DHT22;6474;53.474;9.894;2022-10-30T06:49:08;12.30;91.20
12819;DHT22;6474;53.474;9.894;2022-10-30T06:51:35;12.30;91.10
12819;DHT22;6474;53.474;9.894;2022-10-30T06:54:03;12.30;91.10
12819;DHT22;6474;53.474;9.894;2022-10-30T06:56:33;12.40;91.10
12819;DHT22;6474;53.474;9.894;2022-10-30T06:59:01;12.40;91.10
12819;DHT22;6474;53.474;9.894;2022-10-30T07:01:28;12.40;91.10
12819;DHT22;6474;53.474;9.894;2022-10-30T07:03:56;12.40;91.10
12819;DHT22;6474;53.474;9.894;2022-10-30T07:06:24;12.40;91.10
12819;DHT22;6474;53.474;9.894;2022-10-30T07:08:52;12.50;91.10
12819;DHT22;6474;53.474;9.894;2022-10-30T07:11:19;12.50;91.10
12819;DHT22;6474;53.474;9.894;2022-10-30T07:13:48;12.50;91.10
12819;DHT22;6474;53.474;9.894;2022-10-30T07:16:16;12.60;91.10
12819;DHT22;6474;53.474;9.894;2022-10-30T07:18:44;12.60;91.10
12819;DHT22;6474;53.474;9.894;2022-10-30T07:21:12;12.70;91.10
12819;DHT22;6474;53.474;9.894;2022-10-30T07:23:39;12.70;91.10
12819;DHT22;6474;53.474;9.894;2022-10-30T07:26:07;12.70;91.10
12819;DHT22;6474;53.474;9.894;2022-10-30T07:28:35;12.80;91.10
12819;DHT22;6474;53.474;9.894;2022-10-30T07:31:04;12.80;91.10
12819;DHT22;6474;53.474;9.894;2022-10-30T07:33:32;12.80;91.10
12819;DHT22;6474;53.474;9.894;2022-10-30T07:36:00;12.90;91.10
12819;DHT22;6474;53.474;9.894;2022-10-30T07:38:28;12.90;91.10
12819;DHT22;6474;53.474;9.894;2022-10-30T07:40:56;13.00;91.10
12819;DHT22;6474;53.474;9.894;2022-10-30T07:43:23;13.00;91.20
12819;DHT22;6474;53.474;9.894;2022-10-30T07:45:51;13.10;91.20
12819;DHT22;6474;53.474;9.894;2022-10-30T07:48:20;13.20;91.40
12819;DHT22;6474;53.474;9.894;2022-10-30T07:50:48;13.40;91.50
12819;DHT22;6474;53.474;9.894;2022-10-30T07:53:16;13.50;91.40
12819;DHT22;6474;53.474;9.894;2022-10-30T07:55:43;13.60;91.30
12819;DHT22;6474;53.474;9.894;2022-10-30T07:58:11;13.70;91.20
12819;DHT22;6474;53.474;9.894;2022-10-30T08:00:39;13.90;91.20
12819;DHT22;6474;53.474;9.894;2022-10-30T08:03:07;13.90;91.10
12819;DHT22;6474;53.474;9.894;2022-10-30T08:05:37;14.00;91.20
12819;DHT22;6474;53.474;9.894;2022-10-30T08:08:05;14.10;91.10
12819;DHT22;6474;53.474;9.894;2022-10-30T08:10:33;14.20;91.20
12819;DHT22;6474;53.474;9.894;2022-10-30T08:13:01;14.20;91.10
12819;DHT22;6474;53.474;9.894;2022-10-30T08:15:29;14.30;91.10
12819;DHT22;6474;53.474;9.894;2022-10-30T08:17:56;14.40;91.10
12819;DHT22;6474;53.474;9.894;2022-10-30T08:20:25;14.50;91.10
12819;DHT22;6474;53.474;9.894;2022-10-30T08:22:55;14.50;91.10
12819;DHT22;6474;53.474;9.894;2022-10-30T08:25:26;14.60;91.10
12819;DHT22;6474;53.474;9.894;2022-10-30T08:27:56;14.70;91.10
12819;DHT22;6474;53.474;9.894;2022-10-30T08:30:26;14.80;91.20
12819;DHT22;6474;53.474;9.894;2022-10-30T08:32:56;14.80;91.10
12819;DHT22;6474;53.474;9.894;2022-10-30T08:35:25;14.90;91.10
12819;DHT22;6474;53.474;9.894;2022-10-30T08:37:55;14.90;91.10
12819;DHT22;6474;53.474;9.894;2022-10-30T08:40:24;14.90;91.10
12819;DHT22;6474;53.474;9.894;2022-10-30T08:42:54;14.90;91.10
12819;DHT22;6474;53.474;9.894;2022-10-30T08:45:23;15.00;91.20
12819;DHT22;6474;53.474;9.894;2022-10-30T08:47:57;15.00;91.20
12819;DHT22;6474;53.474;9.894;2022-10-30T08:50:26;15.10;91.30
12819;DHT22;6474;53.474;9.894;2022-10-30T08:52:59;15.10;91.30
12819;DHT22;6474;53.474;9.894;2022-10-30T08:55:28;15.20;91.30
12819;DHT22;6474;53.474;9.894;2022-10-30T08:57:56;15.20;91.30
12819;DHT22;6474;53.474;9.894;2022-10-30T09:00:25;15.30;91.30
12819;DHT22;6474;53.474;9.894;2022-10-30T09:02:53;15.40;91.30
12819;DHT22;6474;53.474;9.894;2022-10-30T09:05:22;15.40;91.30
12819;DHT22;6474;53.474;9.894;2022-10-30T09:07:56;15.50;91.30
12819;DHT22;6474;53.474;9.894;2022-10-30T09:10:27;15.60;91.30
12819;DHT22;6474;53.474;9.894;2022-10-30T09:12:54;15.60;91.30
12819;DHT22;6474;53.474;9.894;2022-10-30T09:15:23;15.70;91.30
12819;DHT22;6474;53.474;9.894;2022-10-30T09:17:55;15.70;91.30
12819;DHT22;6474;53.474;9.894;2022-10-30T09:20:24;15.80;91.40
12819;DHT22;6474;53.474;9.894;2022-10-30T09:22:52;15.90;91.40
12819;DHT22;6474;53.474;9.894;2022-10-30T09:25:21;15.90;91.30
12819;DHT22;6474;53.474;9.894;2022-10-30T09:27:49;15.90;91.30
12819;DHT22;6474;53.474;9.894;2022-10-30T09:30:17;16.00;91.40
12819;DHT22;6474;53.474;9.894;2022-10-30T09:32:45;16.10;91.40
12819;DHT22;6474;53.474;9.894;2022-10-30T09:35:20;16.00;91.30
12819;DHT22;6474;53.474;9.894;2022-10-30T09:37:48;16.10;91.40
12819;DHT22;6474;53.474;9.894;2022-10-30T09:40:24;16.10;91.40
12819;DHT22;6474;53.474;9.894;2022-10-30T09:42:57;16.20;91.40
12819;DHT22;6474;53.474;9.894;2022-10-30T09:45:47;16.30;91.50
12819;DHT22;6474;53.474;9.894;2022-10-30T09:48:35;16.40;91.50
12819;DHT22;6474;53.474;9.894;2022-10-30T09:51:17;16.40;91.40
12819;DHT22;6474;53.474;9.894;2022-10-30T09:53:55;16.50;91.40
12819;DHT22;6474;53.474;9.894;2022-10-30T09:56:32;16.60;91.40
12819;DHT22;6474;53.474;9.894;2022-10-30T09:59:07;16.60;91.40
12819;DHT22;6474;53.474;9.894;2022-10-30T10:01:42;16.60;91.30
12819;DHT22;6474;53.474;9.894;2022-10-30T10:04:22;16.70;91.40
12819;DHT22;6474;53.474;9.894;2022-10-30T10:06:55;16.70;91.40
12819;DHT22;6474;53.474;9.894;2022-10-30T10:09:25;16.70;91.40
12819;DHT22;6474;53.474;9.894;2022-10-30T10:11:59;16.80;91.50
12819;DHT22;6474;53.474;9.894;2022-10-30T10:14:31;16.80;91.50
12819;DHT22;6474;53.474;9.894;2022-10-30T10:17:03;16.90;91.40
12819;DHT22;6474;53.474;9.894;2022-10-30T10:19:37;17.00;91.50
12819;DHT22;6474;53.474;9.894;2022-10-30T10:22:13;17.00;91.50
12819;DHT22;6474;53.474;9.894;2022-10-30T10:24:45;17.00;91.50
12819;DHT22;6474;53.474;9.894;2022-10-30T10:27:22;17.10;91.50
12819;DHT22;6474;53.474;9.894;2022-10-30T10:29:58;17.10;91.50
12819;DHT22;6474;53.474;9.894;2022-10-30T10:35:49;17.20;91.60
12819;DHT22;6474;53.474;9.894;2022-10-30T10:38:49;17.30;91.60
12819;DHT22;6474;53.474;9.894;2022-10-30T10:41:26;17.30;91.60
12819;DHT22;6474;53.474;9.894;2022-10-30T10:44:18;17.40;91.70
12819;DHT22;6474;53.474;9.894;2022-10-30T10:46:58;17.40;91.60
12819;DHT22;6474;53.474;9.894;2022-10-30T10:49:41;17.50;91.70
12819;DHT22;6474;53.474;9.894;2022-10-30T10:52:17;17.60;91.70
12819;DHT22;6474;53.474;9.894;2022-10-30T10:54:50;17.60;91.60
12819;DHT22;6474;53.474;9.894;2022-10-30T10:57:25;17.70;91.70
12819;DHT22;6474;53.474;9.894;2022-10-30T11:00:00;17.80;91.70
12819;DHT22;6474;53.474;9.894;2022-10-30T11:02:34;17.80;91.70
12819;DHT22;6474;53.474;9.894;2022-10-30T11:05:10;17.80;91.60
12819;DHT22;6474;53.474;9.894;2022-10-30T11:07:45;17.90;91.60
12819;DHT22;6474;53.474;9.894;2022-10-30T11:10:15;18.00;91.70
12819;DHT22;6474;53.474;9.894;2022-10-30T11:12:43;18.10;91.60
12819;DHT22;6474;53.474;9.894;2022-10-30T11:15:25;18.10;91.60
12819;DHT22;6474;53.474;9.894;2022-10-30T11:17:59;18.20;91.60
12819;DHT22;6474;53.474;9.894;2022-10-30T11:20:35;18.20;91.50
12819;DHT22;6474;53.474;9.894;2022-10-30T11:23:03;18.30;91.50
12819;DHT22;6474;53.474;9.894;2022-10-30T11:25:52;18.30;91.50
12819;DHT22;6474;53.474;9.894;2022-10-30T11:28:33;18.30;91.50
12819;DHT22;6474;53.474;9.894;2022-10-30T11:31:22;18.40;91.60
12819;DHT22;6474;53.474;9.894;2022-10-30T11:33:50;18.40;91.60
12819;DHT22;6474;53.474;9.894;2022-10-30T11:36:22;18.40;91.60
12819;DHT22;6474;53.474;9.894;2022-10-30T11:38:50;18.50;91.60
12819;DHT22;6474;53.474;9.894;2022-10-30T11:41:19;18.50;91.60
12819;DHT22;6474;53.474;9.894;2022-10-30T11:43:47;18.50;91.60
12819;DHT22;6474;53.474;9.894;2022-10-30T11:46:20;18.60;91.70
12819;DHT22;6474;53.474;9.894;2022-10-30T11:48:49;18.60;91.70
12819;DHT22;6474;53.474;9.894;2022-10-30T11:51:37;18.60;91.60
12819;DHT22;6474;53.474;9.894;2022-10-30T11:54:14;18.60;91.60
12819;DHT22;6474;53.474;9.894;2022-10-30T11:56:47;18.70;91.70
12819;DHT22;6474;53.474;9.894;2022-10-30T11:59:18;18.80;91.70
12819;DHT22;6474;53.474;9.894;2022-10-30T12:01:58;18.70;91.60
12819;DHT22;6474;53.474;9.894;2022-10-30T12:04:27;18.80;91.70
12819;DHT22;6474;53.474;9.894;2022-10-30T12:07:08;18.80;91.60
12819;DHT22;6474;53.474;9.894;2022-10-30T12:09:44;18.80;91.60
12819;DHT22;6474;53.474;9.894;2022-10-30T12:12:21;18.80;91.60
12819;DHT22;6474;53.474;9.894;2022-10-30T12:14:51;18.80;91.60
12819;DHT22;6474;53.474;9.894;2022-10-30T12:17:19;18.80;91.60
12819;DHT22;6474;53.474;9.894;2022-10-30T12:19:50;18.80;91.60
12819;DHT22;6474;53.474;9.894;2022-10-30T12:22:26;18.80;91.60
12819;DHT22;6474;53.474;9.894;2022-10-30T12:24:56;18.80;91.60
12819;DHT22;6474;53.474;9.894;2022-10-30T12:27:26;18.80;91.60
12819;DHT22;6474;53.474;9.894;2022-10-30T12:30:02;18.80;91.60
12819;DHT22;6474;53.474;9.894;2022-10-30T12:32:42;18.80;91.60
12819;DHT22;6474;53.474;9.894;2022-10-30T12:35:34;18.80;91.60
12819;DHT22;6474;53.474;9.894;2022-10-30T12:38:05;18.70;91.60
12819;DHT22;6474;53.474;9.894;2022-10-30T12:40:43;18.70;91.60
12819;DHT22;6474;53.474;9.894;2022-10-30T12:43:18;18.70;91.60
12819;DHT22;6474;53.474;9.894;2022-10-30T12:45:50;18.70;91.70
12819;DHT22;6474;53.474;9.894;2022-10-30T12:48:25;18.70;91.70
12819;DHT22;6474;53.474;9.894;2022-10-30T12:51:08;18.60;91.60
12819;DHT22;6474;53.474;9.894;2022-10-30T12:53:46;18.60;91.70
12819;DHT22;6474;53.474;9.894;2022-10-30T12:56:18;18.70;91.70
12819;DHT22;6474;53.474;9.894;2022-10-30T12:58:52;18.70;91.70
12819;DHT22;6474;53.474;9.894;2022-10-30T13:01:25;18.70;91.60
12819;DHT22;6474;53.474;9.894;2022-10-30T13:03:57;18.70;91.60
12819;DHT22;6474;53.474;9.894;2022-10-30T13:06:28;18.80;91.60
12819;DHT22;6474;53.474;9.894;2022-10-30T13:09:03;18.70;91.60
12819;DHT22;6474;53.474;9.894;2022-10-30T13:11:38;18.70;91.60
12819;DHT22;6474;53.474;9.894;2022-10-30T13:14:14;18.70;91.60
12819;DHT22;6474;53.474;9.894;2022-10-30T13:16:42;18.70;91.60
12819;DHT22;6474;53.474;9.894;2022-10-30T13:19:11;18.70;91.60
12819;DHT22;6474;53.474;9.894;2022-10-30T13:21:45;18.70;91.60
12819;DHT22;6474;53.474;9.894;2022-10-30T13:24:20;18.70;91.60
12819;DHT22;6474;53.474;9.894;2022-10-30T13:26:51;18.70;91.60
12819;DHT22;6474;53.474;9.894;2022-10-30T13:29:27;18.70;91.60
12819;DHT22;6474;53.474;9.894;2022-10-30T13:32:10;18.70;91.60
12819;DHT22;6474;53.474;9.894;2022-10-30T13:34:44;18.70;91.60
12819;DHT22;6474;53.474;9.894;2022-10-30T13:37:20;18.70;91.60
12819;DHT22;6474;53.474;9.894;2022-10-30T13:40:00;18.70;91.60
12819;DHT22;6474;53.474;9.894;2022-10-30T13:42:39;18.60;91.60
12819;DHT22;6474;53.474;9.894;2022-10-30T13:45:39;18.60;91.60
12819;DHT22;6474;53.474;9.894;2022-10-30T13:48:12;18.60;91.60
12819;DHT22;6474;53.474;9.894;2022-10-30T13:51:00;18.50;91.60
12819;DHT22;6474;53.474;9.894;2022-10-30T13:53:30;18.40;91.50
12819;DHT22;6474;53.474;9.894;2022-10-30T13:56:01;18.40;91.60
12819;DHT22;6474;53.474;9.894;2022-10-30T13:58:33;18.30;91.60
12819;DHT22;6474;53.474;9.894;2022-10-30T14:01:06;18.30;91.70
12819;DHT22;6474;53.474;9.894;2022-10-30T14:03:47;18.30;91.70
12819;DHT22;6474;53.474;9.894;2022-10-30T14:06:25;18.20;91.70
12819;DHT22;6474;53.474;9.894;2022-10-30T14:09:01;18.10;91.60
12819;DHT22;6474;53.474;9.894;2022-10-30T14:11:29;18.10;91.70
12819;DHT22;6474;53.474;9.894;2022-10-30T14:14:03;18.10;91.70
12819;DHT22;6474;53.474;9.894;2022-10-30T14:16:37;18.10;91.70
12819;DHT22;6474;53.474;9.894;2022-10-30T14:19:07;18.00;91.60
12819;DHT22;6474;53.474;9.894;2022-10-30T14:21:38;18.00;91.70
12819;DHT22;6474;53.474;9.894;2022-10-30T14:24:12;17.90;91.60
12819;DHT22;6474;53.474;9.894;2022-10-30T14:26:53;17.90;91.70
12819;DHT22;6474;53.474;9.894;2022-10-30T14:29:45;17.90;91.70
12819;DHT22;6474;53.474;9.894;2022-10-30T14:32:38;17.80;91.70
12819;DHT22;6474;53.474;9.894;2022-10-30T14:35:33;17.80;91.70
12819;DHT22;6474;53.474;9.894;2022-10-30T14:38:34;17.70;91.60
12819;DHT22;6474;53.474;9.894;2022-10-30T14:44:28;17.60;91.60
12819;DHT22;6474;53.474;9.894;2022-10-30T14:47:32;17.60;91.60
12819;DHT22;6474;53.474;9.894;2022-10-30T14:50:14;17.50;91.60
12819;DHT22;6474;53.474;9.894;2022-10-30T14:52:54;17.50;91.60
12819;DHT22;6474;53.474;9.894;2022-10-30T14:55:30;17.40;91.60
12819;DHT22;6474;53.474;9.894;2022-10-30T14:58:18;17.40;91.60
12819;DHT22;6474;53.474;9.894;2022-10-30T15:00:47;17.30;91.60
12819;DHT22;6474;53.474;9.894;2022-10-30T15:03:35;17.20;91.50
12819;DHT22;6474;53.474;9.894;2022-10-30T15:06:16;17.20;91.60
12819;DHT22;6474;53.474;9.894;2022-10-30T15:09:07;17.10;91.50
12819;DHT22;6474;53.474;9.894;2022-10-30T15:11:55;17.00;91.50
12819;DHT22;6474;53.474;9.894;2022-10-30T15:14:28;17.00;91.50
12819;DHT22;6474;53.474;9.894;2022-10-30T15:17:23;16.80;91.10
12819;DHT22;6474;53.474;9.894;2022-10-30T15:19:53;16.80;91.40
12819;DHT22;6474;53.474;9.894;2022-10-30T15:22:23;16.70;91.40
12819;DHT22;6474;53.474;9.894;2022-10-30T15:24:53;16.60;91.40
12819;DHT22;6474;53.474;9.894;2022-10-30T15:27:22;16.50;91.40
12819;DHT22;6474;53.474;9.894;2022-10-30T15:29:54;16.50;91.50
12819;DHT22;6474;53.474;9.894;2022-10-30T15:32:23;16.40;91.50
12819;DHT22;6474;53.474;9.894;2022-10-30T15:34:52;16.30;91.50
12819;DHT22;6474;53.474;9.894;2022-10-30T15:37:22;16.30;91.60
12819;DHT22;6474;53.474;9.894;2022-10-30T15:40:08;16.20;91.50
12819;DHT22;6474;53.474;9.894;2022-10-30T15:42:36;16.10;91.50
12819;DHT22;6474;53.474;9.894;2022-10-30T15:45:07;16.10;91.60
12819;DHT22;6474;53.474;9.894;2022-10-30T15:47:44;16.00;91.60
12819;DHT22;6474;53.474;9.894;2022-10-30T15:50:14;15.90;91.50
12819;DHT22;6474;53.474;9.894;2022-10-30T15:52:43;15.90;91.60
12819;DHT22;6474;53.474;9.894;2022-10-30T15:55:15;15.80;91.60
12819;DHT22;6474;53.474;9.894;2022-10-30T15:57:46;15.80;91.60
12819;DHT22;6474;53.474;9.894;2022-10-30T16:00:32;15.70;91.60
12819;DHT22;6474;53.474;9.894;2022-10-30T16:03:02;15.60;91.60
12819;DHT22;6474;53.474;9.894;2022-10-30T16:05:31;15.60;91.50
12819;DHT22;6474;53.474;9.894;2022-10-30T16:08:01;15.50;91.50
12819;DHT22;6474;53.474;9.894;2022-10-30T16:10:32;15.50;91.50
12819;DHT22;6474;53.474;9.894;2022-10-30T16:13:01;15.50;91.60
12819;DHT22;6474;53.474;9.894;2022-10-30T16:15:33;15.40;91.60
12819;DHT22;6474;53.474;9.894;2022-10-30T16:18:05;15.40;91.60
12819;DHT22;6474;53.474;9.894;2022-10-30T16:20:34;15.40;91.60
12819;DHT22;6474;53.474;9.894;2022-10-30T16:23:06;15.30;91.60